sensor_id;sensor_type;location;lat;lon;timestamp;P1;durP1;ratioP1;P2;durP2;ratioP2
70975;SDS011;58635;51.198;6.010;2023-03-13T00:01:09;14.05;;;3.22;;
70975;SDS011;58635;51.198;6.010;2023-03-13T00:03:37;11.60;;;3.20;;
70975;SDS011;58635;51.198;6.010;2023-03-13T00:06:03;13.98;;;3.03;;
70975;SDS011;58635;51.198;6.010;2023-03-13T00:08:28;15.73;;;3.25;;
70975;SDS011;58635;51.198;6.010;2023-03-13T00:10:54;15.85;;;3.08;;
70975;SDS011;58635;51.198;6.010;2023-03-13T00:13:21;14.88;;;3.15;;
70975;SDS011;58635;51.198;6.010;2023-03-13T00:15:47;11.35;;;2.83;;
70975;SDS011;58635;51.198;6.010;2023-03-13T00:18:12;12.07;;;2.70;;
70975;SDS011;58635;51.198;6.010;2023-03-13T00:20:38;17.52;;;3.50;;
70975;SDS011;58635;51.198;6.010;2023-03-13T00:23:03;15.75;;;3.30;;
70975;SDS011;58635;51.198;6.010;2023-03-13T00:25:29;14.77;;;2.95;;
70975;SDS011;58635;51.198;6.010;2023-03-13T00:27:54;14.27;;;3.08;;
70975;SDS011;58635;51.198;6.010;2023-03-13T00:30:20;10.68;;;2.72;;
70975;SDS011;58635;51.198;6.010;2023-03-13T00:32:46;13.10;;;3.50;;
70975;SDS011;58635;51.198;6.010;2023-03-13T00:35:12;20.30;;;3.42;;
70975;SDS011;58635;51.198;6.010;2023-03-13T00:37:38;14.93;;;3.35;;
70975;SDS011;58635;51.198;6.010;2023-03-13T00:40:04;11.63;;;3.33;;
70975;SDS011;58635;51.198;6.010;2023-03-13T00:42:31;17.02;;;3.22;;
70975;SDS011;58635;51.198;6.010;2023-03-13T00:44:56;16.48;;;3.15;;
70975;SDS011;58635;51.198;6.010;2023-03-13T00:47:21;10.80;;;2.78;;
70975;SDS011;58635;51.198;6.010;2023-03-13T00:49:47;14.82;;;4.10;;
70975;SDS011;58635;51.198;6.010;2023-03-13T00:52:12;14.38;;;3.10;;
70975;SDS011;58635;51.198;6.010;2023-03-13T00:54:38;10.98;;;2.67;;
70975;SDS011;58635;51.198;6.010;2023-03-13T00:57:03;12.27;;;3.22;;
70975;SDS011;58635;51.198;6.010;2023-03-13T00:59:29;13.43;;;2.90;;
70975;SDS011;58635;51.198;6.010;2023-03-13T01:01:54;15.00;;;2.90;;
70975;SDS011;58635;51.198;6.010;2023-03-13T01:04:19;14.00;;;2.92;;
70975;SDS011;58635;51.198;6.010;2023-03-13T01:06:45;11.25;;;2.70;;
70975;SDS011;58635;51.198;6.010;2023-03-13T01:09:11;15.95;;;3.00;;
70975;SDS011;58635;51.198;6.010;2023-03-13T01:11:39;15.55;;;3.50;;
70975;SDS011;58635;51.198;6.010;2023-03-13T01:14:07;11.73;;;2.67;;
70975;SDS011;58635;51.198;6.010;2023-03-13T01:16:41;14.90;;;2.72;;
70975;SDS011;58635;51.198;6.010;2023-03-13T01:19:07;13.82;;;2.95;;
70975;SDS011;58635;51.198;6.010;2023-03-13T01:21:35;14.13;;;2.55;;
70975;SDS011;58635;51.198;6.010;2023-03-13T01:24:01;10.93;;;2.72;;
70975;SDS011;58635;51.198;6.010;2023-03-13T01:26:26;10.05;;;2.95;;
70975;SDS011;58635;51.198;6.010;2023-03-13T01:28:53;15.25;;;3.08;;
70975;SDS011;58635;51.198;6.010;2023-03-13T01:31:23;12.15;;;3.10;;
70975;SDS011;58635;51.198;6.010;2023-03-13T01:33:49;9.18;;;2.90;;
70975;SDS011;58635;51.198;6.010;2023-03-13T01:36:17;13.38;;;2.92;;
70975;SDS011;58635;51.198;6.010;2023-03-13T01:38:46;12.02;;;2.72;;
70975;SDS011;58635;51.198;6.010;2023-03-13T01:41:12;13.50;;;2.85;;
70975;SDS011;58635;51.198;6.010;2023-03-13T01:43:38;12.43;;;2.50;;
70975;SDS011;58635;51.198;6.010;2023-03-13T01:46:07;13.00;;;2.92;;
70975;SDS011;58635;51.198;6.010;2023-03-13T01:51:37;8.30;;;2.40;;
70975;SDS011;58635;51.198;6.010;2023-03-13T01:54:07;10.05;;;2.65;;
70975;SDS011;58635;51.198;6.010;2023-03-13T01:56:45;9.07;;;2.30;;
70975;SDS011;58635;51.198;6.010;2023-03-13T01:59:16;11.68;;;2.53;;
70975;SDS011;58635;51.198;6.010;2023-03-13T02:01:45;7.93;;;2.33;;
70975;SDS011;58635;51.198;6.010;2023-03-13T02:04:13;12.93;;;2.67;;
70975;SDS011;58635;51.198;6.010;2023-03-13T02:06:41;10.15;;;2.50;;
70975;SDS011;58635;51.198;6.010;2023-03-13T02:09:18;8.07;;;2.17;;
70975;SDS011;58635;51.198;6.010;2023-03-13T02:11:54;7.10;;;2.42;;
70975;SDS011;58635;51.198;6.010;2023-03-13T02:14:26;7.00;;;1.95;;
70975;SDS011;58635;51.198;6.010;2023-03-13T02:16:54;9.95;;;2.13;;
70975;SDS011;58635;51.198;6.010;2023-03-13T02:27:33;6.43;;;2.13;;
70975;SDS011;58635;51.198;6.010;2023-03-13T02:29:58;7.53;;;2.10;;
70975;SDS011;58635;51.198;6.010;2023-03-13T02:32:24;10.52;;;2.20;;
70975;SDS011;58635;51.198;6.010;2023-03-13T02:34:53;5.10;;;1.92;;
70975;SDS011;58635;51.198;6.010;2023-03-13T02:37:21;7.20;;;2.05;;
70975;SDS011;58635;51.198;6.010;2023-03-13T02:39:49;7.25;;;2.00;;
70975;SDS011;58635;51.198;6.010;2023-03-13T02:42:16;6.15;;;1.98;;
70975;SDS011;58635;51.198;6.010;2023-03-13T02:44:44;4.30;;;1.70;;
70975;SDS011;58635;51.198;6.010;2023-03-13T02:47:10;6.35;;;2.55;;
70975;SDS011;58635;51.198;6.010;2023-03-13T02:49:36;4.72;;;1.80;;
70975;SDS011;58635;51.198;6.010;2023-03-13T02:54:42;6.07;;;2.13;;
70975;SDS011;58635;51.198;6.010;2023-03-13T02:57:11;3.67;;;2.05;;
70975;SDS011;58635;51.198;6.010;2023-03-13T02:59:36;6.78;;;2.13;;
70975;SDS011;58635;51.198;6.010;2023-03-13T03:02:02;4.63;;;1.95;;
70975;SDS011;58635;51.198;6.010;2023-03-13T03:04:28;6.82;;;1.90;;
70975;SDS011;58635;51.198;6.010;2023-03-13T03:06:54;6.07;;;1.92;;
70975;SDS011;58635;51.198;6.010;2023-03-13T03:09:20;3.90;;;1.73;;
70975;SDS011;58635;51.198;6.010;2023-03-13T03:11:47;3.67;;;1.95;;
70975;SDS011;58635;51.198;6.010;2023-03-13T03:14:12;4.40;;;1.98;;
70975;SDS011;58635;51.198;6.010;2023-03-13T03:16:38;3.63;;;1.65;;
70975;SDS011;58635;51.198;6.010;2023-03-13T03:19:04;7.03;;;1.90;;
70975;SDS011;58635;51.198;6.010;2023-03-13T03:21:30;4.38;;;2.10;;
70975;SDS011;58635;51.198;6.010;2023-03-13T03:23:56;5.72;;;1.95;;
70975;SDS011;58635;51.198;6.010;2023-03-13T03:26:22;3.97;;;1.65;;
70975;SDS011;58635;51.198;6.010;2023-03-13T03:28:47;4.15;;;1.70;;
70975;SDS011;58635;51.198;6.010;2023-03-13T03:31:14;4.47;;;2.00;;
70975;SDS011;58635;51.198;6.010;2023-03-13T03:33:40;3.47;;;1.80;;
70975;SDS011;58635;51.198;6.010;2023-03-13T03:36:07;4.80;;;1.88;;
70975;SDS011;58635;51.198;6.010;2023-03-13T03:38:38;5.80;;;1.90;;
70975;SDS011;58635;51.198;6.010;2023-03-13T03:41:05;6.05;;;2.00;;
70975;SDS011;58635;51.198;6.010;2023-03-13T03:43:31;2.83;;;1.55;;
70975;SDS011;58635;51.198;6.010;2023-03-13T03:45:56;5.20;;;2.10;;
70975;SDS011;58635;51.198;6.010;2023-03-13T03:48:22;3.58;;;1.90;;
70975;SDS011;58635;51.198;6.010;2023-03-13T03:50:47;2.53;;;1.67;;
70975;SDS011;58635;51.198;6.010;2023-03-13T03:53:13;4.88;;;1.80;;
70975;SDS011;58635;51.198;6.010;2023-03-13T03:55:39;4.25;;;1.80;;
70975;SDS011;58635;51.198;6.010;2023-03-13T03:58:04;3.72;;;1.60;;
70975;SDS011;58635;51.198;6.010;2023-03-13T04:00:29;3.70;;;2.08;;
70975;SDS011;58635;51.198;6.010;2023-03-13T04:02:55;2.97;;;1.60;;
70975;SDS011;58635;51.198;6.010;2023-03-13T04:05:21;3.53;;;1.80;;
70975;SDS011;58635;51.198;6.010;2023-03-13T04:07:47;3.90;;;1.70;;
70975;SDS011;58635;51.198;6.010;2023-03-13T04:10:13;5.40;;;2.20;;
70975;SDS011;58635;51.198;6.010;2023-03-13T04:12:38;3.47;;;1.58;;
70975;SDS011;58635;51.198;6.010;2023-03-13T04:15:04;5.00;;;1.73;;
70975;SDS011;58635;51.198;6.010;2023-03-13T04:17:30;3.67;;;1.73;;
70975;SDS011;58635;51.198;6.010;2023-03-13T04:19:55;4.53;;;1.50;;
70975;SDS011;58635;51.198;6.010;2023-03-13T04:22:21;3.10;;;1.60;;
70975;SDS011;58635;51.198;6.010;2023-03-13T04:24:46;3.72;;;1.75;;
70975;SDS011;58635;51.198;6.010;2023-03-13T04:27:12;2.70;;;1.60;;
70975;SDS011;58635;51.198;6.010;2023-03-13T04:29:37;2.70;;;1.50;;
70975;SDS011;58635;51.198;6.010;2023-03-13T04:32:02;3.75;;;1.90;;
70975;SDS011;58635;51.198;6.010;2023-03-13T04:34:28;4.10;;;1.85;;
70975;SDS011;58635;51.198;6.010;2023-03-13T04:36:54;3.53;;;2.03;;
70975;SDS011;58635;51.198;6.010;2023-03-13T04:39:19;2.60;;;1.67;;
70975;SDS011;58635;51.198;6.010;2023-03-13T04:41:49;4.18;;;2.05;;
70975;SDS011;58635;51.198;6.010;2023-03-13T04:44:18;4.18;;;2.00;;
70975;SDS011;58635;51.198;6.010;2023-03-13T04:46:44;2.83;;;1.90;;
70975;SDS011;58635;51.198;6.010;2023-03-13T04:49:09;4.40;;;1.85;;
70975;SDS011;58635;51.198;6.010;2023-03-13T04:51:35;4.35;;;1.83;;
70975;SDS011;58635;51.198;6.010;2023-03-13T04:54:00;3.38;;;2.00;;
70975;SDS011;58635;51.198;6.010;2023-03-13T04:56:26;3.65;;;2.20;;
70975;SDS011;58635;51.198;6.010;2023-03-13T04:58:52;3.22;;;1.83;;
70975;SDS011;58635;51.198;6.010;2023-03-13T05:01:17;5.50;;;2.10;;
70975;SDS011;58635;51.198;6.010;2023-03-13T05:03:43;3.95;;;1.90;;
70975;SDS011;58635;51.198;6.010;2023-03-13T05:06:09;4.45;;;1.90;;
70975;SDS011;58635;51.198;6.010;2023-03-13T05:08:35;3.92;;;2.13;;
70975;SDS011;58635;51.198;6.010;2023-03-13T05:11:00;3.28;;;1.92;;
70975;SDS011;58635;51.198;6.010;2023-03-13T05:13:26;3.65;;;1.85;;
70975;SDS011;58635;51.198;6.010;2023-03-13T05:15:52;4.10;;;2.10;;
70975;SDS011;58635;51.198;6.010;2023-03-13T05:18:17;5.07;;;1.90;;
70975;SDS011;58635;51.198;6.010;2023-03-13T05:20:43;5.40;;;2.20;;
70975;SDS011;58635;51.198;6.010;2023-03-13T05:23:08;3.83;;;1.73;;
70975;SDS011;58635;51.198;6.010;2023-03-13T05:25:34;3.85;;;1.83;;
70975;SDS011;58635;51.198;6.010;2023-03-13T05:27:59;3.50;;;1.80;;
70975;SDS011;58635;51.198;6.010;2023-03-13T05:30:24;3.92;;;2.13;;
70975;SDS011;58635;51.198;6.010;2023-03-13T05:32:50;2.72;;;1.83;;
70975;SDS011;58635;51.198;6.010;2023-03-13T05:35:16;5.30;;;2.00;;
70975;SDS011;58635;51.198;6.010;2023-03-13T05:37:41;5.07;;;1.90;;
70975;SDS011;58635;51.198;6.010;2023-03-13T05:40:07;3.72;;;1.67;;
70975;SDS011;58635;51.198;6.010;2023-03-13T05:42:34;4.68;;;2.03;;
70975;SDS011;58635;51.198;6.010;2023-03-13T05:44:59;4.68;;;1.65;;
70975;SDS011;58635;51.198;6.010;2023-03-13T05:47:25;4.88;;;2.22;;
70975;SDS011;58635;51.198;6.010;2023-03-13T05:49:50;4.75;;;2.00;;
70975;SDS011;58635;51.198;6.010;2023-03-13T05:52:15;6.32;;;1.80;;
70975;SDS011;58635;51.198;6.010;2023-03-13T05:54:41;4.38;;;2.17;;
70975;SDS011;58635;51.198;6.010;2023-03-13T05:57:06;3.42;;;1.90;;
70975;SDS011;58635;51.198;6.010;2023-03-13T05:59:32;4.30;;;1.88;;
70975;SDS011;58635;51.198;6.010;2023-03-13T06:01:57;3.60;;;1.90;;
70975;SDS011;58635;51.198;6.010;2023-03-13T06:04:22;4.45;;;1.80;;
70975;SDS011;58635;51.198;6.010;2023-03-13T06:06:48;5.40;;;1.70;;
70975;SDS011;58635;51.198;6.010;2023-03-13T06:09:13;5.95;;;2.28;;
70975;SDS011;58635;51.198;6.010;2023-03-13T06:11:39;3.80;;;2.22;;
70975;SDS011;58635;51.198;6.010;2023-03-13T06:14:05;6.22;;;2.22;;
70975;SDS011;58635;51.198;6.010;2023-03-13T06:16:31;4.38;;;2.20;;
70975;SDS011;58635;51.198;6.010;2023-03-13T06:18:56;5.10;;;2.10;;
70975;SDS011;58635;51.198;6.010;2023-03-13T06:21:22;6.38;;;1.90;;
70975;SDS011;58635;51.198;6.010;2023-03-13T06:23:47;5.28;;;2.22;;
70975;SDS011;58635;51.198;6.010;2023-03-13T06:26:13;4.72;;;2.15;;
70975;SDS011;58635;51.198;6.010;2023-03-13T06:28:38;4.75;;;2.13;;
70975;SDS011;58635;51.198;6.010;2023-03-13T06:31:04;5.45;;;1.80;;
70975;SDS011;58635;51.198;6.010;2023-03-13T06:33:31;5.15;;;2.08;;
70975;SDS011;58635;51.198;6.010;2023-03-13T06:35:56;5.15;;;2.28;;
70975;SDS011;58635;51.198;6.010;2023-03-13T06:38:25;6.55;;;2.22;;
70975;SDS011;58635;51.198;6.010;2023-03-13T06:40:51;5.35;;;2.08;;
70975;SDS011;58635;51.198;6.010;2023-03-13T06:43:16;4.30;;;1.85;;
70975;SDS011;58635;51.198;6.010;2023-03-13T06:45:42;4.47;;;2.03;;
70975;SDS011;58635;51.198;6.010;2023-03-13T06:48:07;6.00;;;1.90;;
70975;SDS011;58635;51.198;6.010;2023-03-13T06:50:36;6.97;;;2.33;;
70975;SDS011;58635;51.198;6.010;2023-03-13T06:53:02;6.72;;;2.20;;
70975;SDS011;58635;51.198;6.010;2023-03-13T06:55:27;6.60;;;2.10;;
70975;SDS011;58635;51.198;6.010;2023-03-13T06:57:52;5.32;;;2.03;;
70975;SDS011;58635;51.198;6.010;2023-03-13T07:00:18;6.15;;;2.17;;
70975;SDS011;58635;51.198;6.010;2023-03-13T07:02:44;6.38;;;2.22;;
70975;SDS011;58635;51.198;6.010;2023-03-13T07:05:10;7.05;;;2.33;;
70975;SDS011;58635;51.198;6.010;2023-03-13T07:07:35;6.43;;;2.20;;
70975;SDS011;58635;51.198;6.010;2023-03-13T07:10:01;5.07;;;2.13;;
70975;SDS011;58635;51.198;6.010;2023-03-13T07:12:27;6.85;;;2.05;;
70975;SDS011;58635;51.198;6.010;2023-03-13T07:14:52;8.52;;;2.20;;
70975;SDS011;58635;51.198;6.010;2023-03-13T07:17:17;6.15;;;2.08;;
70975;SDS011;58635;51.198;6.010;2023-03-13T07:19:43;6.45;;;2.38;;
70975;SDS011;58635;51.198;6.010;2023-03-13T07:22:08;8.82;;;2.47;;
70975;SDS011;58635;51.198;6.010;2023-03-13T07:24:34;8.15;;;2.10;;
70975;SDS011;58635;51.198;6.010;2023-03-13T07:26:59;4.75;;;2.10;;
70975;SDS011;58635;51.198;6.010;2023-03-13T07:29:24;5.57;;;2.10;;
70975;SDS011;58635;51.198;6.010;2023-03-13T07:31:50;6.60;;;2.15;;
70975;SDS011;58635;51.198;6.010;2023-03-13T07:34:15;7.88;;;2.20;;
70975;SDS011;58635;51.198;6.010;2023-03-13T07:36:41;9.50;;;2.50;;
70975;SDS011;58635;51.198;6.010;2023-03-13T07:39:06;7.63;;;2.20;;
70975;SDS011;58635;51.198;6.010;2023-03-13T07:41:32;7.03;;;2.08;;
70975;SDS011;58635;51.198;6.010;2023-03-13T07:43:57;8.98;;;2.30;;
70975;SDS011;58635;51.198;6.010;2023-03-13T07:46:23;7.40;;;2.40;;
70975;SDS011;58635;51.198;6.010;2023-03-13T07:48:49;6.32;;;2.78;;
70975;SDS011;58635;51.198;6.010;2023-03-13T07:51:16;6.90;;;2.50;;
70975;SDS011;58635;51.198;6.010;2023-03-13T07:53:43;9.45;;;2.67;;
70975;SDS011;58635;51.198;6.010;2023-03-13T07:56:10;5.50;;;2.17;;
70975;SDS011;58635;51.198;6.010;2023-03-13T07:58:37;7.07;;;2.50;;
70975;SDS011;58635;51.198;6.010;2023-03-13T08:01:07;8.85;;;2.33;;
70975;SDS011;58635;51.198;6.010;2023-03-13T08:03:34;4.90;;;2.17;;
70975;SDS011;58635;51.198;6.010;2023-03-13T08:06:00;8.55;;;2.40;;
70975;SDS011;58635;51.198;6.010;2023-03-13T08:08:27;6.75;;;2.13;;
70975;SDS011;58635;51.198;6.010;2023-03-13T08:10:57;6.65;;;2.17;;
70975;SDS011;58635;51.198;6.010;2023-03-13T08:13:28;8.35;;;2.42;;
70975;SDS011;58635;51.198;6.010;2023-03-13T08:16:03;8.30;;;2.53;;
70975;SDS011;58635;51.198;6.010;2023-03-13T08:18:33;7.65;;;2.47;;
70975;SDS011;58635;51.198;6.010;2023-03-13T08:20:59;9.65;;;2.20;;
70975;SDS011;58635;51.198;6.010;2023-03-13T08:23:29;8.52;;;2.58;;
70975;SDS011;58635;51.198;6.010;2023-03-13T08:25:54;7.22;;;2.30;;
70975;SDS011;58635;51.198;6.010;2023-03-13T08:28:20;10.13;;;2.17;;
70975;SDS011;58635;51.198;6.010;2023-03-13T08:30:45;9.82;;;3.30;;
70975;SDS011;58635;51.198;6.010;2023-03-13T08:33:11;4.97;;;2.40;;
70975;SDS011;58635;51.198;6.010;2023-03-13T08:35:36;7.53;;;2.30;;
70975;SDS011;58635;51.198;6.010;2023-03-13T08:38:01;7.55;;;2.92;;
70975;SDS011;58635;51.198;6.010;2023-03-13T08:40:27;7.40;;;2.53;;
70975;SDS011;58635;51.198;6.010;2023-03-13T08:42:52;8.43;;;2.40;;
70975;SDS011;58635;51.198;6.010;2023-03-13T08:45:18;6.53;;;2.33;;
70975;SDS011;58635;51.198;6.010;2023-03-13T08:47:43;6.15;;;2.33;;
70975;SDS011;58635;51.198;6.010;2023-03-13T08:50:09;7.53;;;2.13;;
70975;SDS011;58635;51.198;6.010;2023-03-13T08:52:35;6.38;;;2.28;;
70975;SDS011;58635;51.198;6.010;2023-03-13T08:55:00;7.93;;;2.17;;
70975;SDS011;58635;51.198;6.010;2023-03-13T08:57:26;5.43;;;2.03;;
70975;SDS011;58635;51.198;6.010;2023-03-13T08:59:51;6.10;;;1.85;;
70975;SDS011;58635;51.198;6.010;2023-03-13T09:02:16;6.65;;;2.20;;
70975;SDS011;58635;51.198;6.010;2023-03-13T09:04:45;6.30;;;2.30;;
70975;SDS011;58635;51.198;6.010;2023-03-13T09:07:11;8.02;;;2.22;;
70975;SDS011;58635;51.198;6.010;2023-03-13T09:09:37;6.30;;;2.40;;
70975;SDS011;58635;51.198;6.010;2023-03-13T09:12:02;9.60;;;4.05;;
70975;SDS011;58635;51.198;6.010;2023-03-13T09:14:28;7.93;;;2.40;;
70975;SDS011;58635;51.198;6.010;2023-03-13T09:16:54;7.28;;;2.38;;
70975;SDS011;58635;51.198;6.010;2023-03-13T09:19:20;9.75;;;2.38;;
70975;SDS011;58635;51.198;6.010;2023-03-13T09:21:46;4.80;;;2.10;;
70975;SDS011;58635;51.198;6.010;2023-03-13T09:24:13;5.30;;;2.22;;
70975;SDS011;58635;51.198;6.010;2023-03-13T09:26:39;5.15;;;1.77;;
70975;SDS011;58635;51.198;6.010;2023-03-13T09:29:05;6.10;;;1.83;;
70975;SDS011;58635;51.198;6.010;2023-03-13T09:31:31;6.57;;;2.15;;
70975;SDS011;58635;51.198;6.010;2023-03-13T09:33:57;3.78;;;1.92;;
70975;SDS011;58635;51.198;6.010;2023-03-13T09:36:23;4.35;;;2.00;;
70975;SDS011;58635;51.198;6.010;2023-03-13T09:38:50;5.75;;;1.85;;
70975;SDS011;58635;51.198;6.010;2023-03-13T09:46:34;4.07;;;1.70;;
70975;SDS011;58635;51.198;6.010;2023-03-13T09:49:27;4.93;;;1.73;;
70975;SDS011;58635;51.198;6.010;2023-03-13T09:51:59;9.35;;;2.30;;
70975;SDS011;58635;51.198;6.010;2023-03-13T09:55:02;6.95;;;2.30;;
70975;SDS011;58635;51.198;6.010;2023-03-13T10:00:12;5.20;;;2.00;;
70975;SDS011;58635;51.198;6.010;2023-03-13T10:02:43;5.53;;;1.75;;
70975;SDS011;58635;51.198;6.010;2023-03-13T10:05:19;5.30;;;1.90;;
70975;SDS011;58635;51.198;6.010;2023-03-13T10:07:49;5.70;;;1.60;;
70975;SDS011;58635;51.198;6.010;2023-03-13T10:13:22;4.40;;;2.03;;
70975;SDS011;58635;51.198;6.010;2023-03-13T10:15:57;6.07;;;2.00;;
70975;SDS011;58635;51.198;6.010;2023-03-13T10:18:25;4.57;;;1.33;;
70975;SDS011;58635;51.198;6.010;2023-03-13T10:20:58;4.45;;;1.52;;
70975;SDS011;58635;51.198;6.010;2023-03-13T10:26:03;2.85;;;1.45;;
70975;SDS011;58635;51.198;6.010;2023-03-13T10:28:28;3.72;;;1.60;;
70975;SDS011;58635;51.198;6.010;2023-03-13T10:31:00;2.92;;;1.40;;
70975;SDS011;58635;51.198;6.010;2023-03-13T10:33:33;4.72;;;1.40;;
70975;SDS011;58635;51.198;6.010;2023-03-13T10:36:02;4.63;;;1.30;;
70975;SDS011;58635;51.198;6.010;2023-03-13T10:38:32;4.28;;;1.50;;
70975;SDS011;58635;51.198;6.010;2023-03-13T10:41:00;3.88;;;1.58;;
70975;SDS011;58635;51.198;6.010;2023-03-13T10:43:31;3.30;;;1.40;;
70975;SDS011;58635;51.198;6.010;2023-03-13T10:45:57;3.33;;;1.30;;
70975;SDS011;58635;51.198;6.010;2023-03-13T10:48:24;5.78;;;2.28;;
70975;SDS011;58635;51.198;6.010;2023-03-13T10:50:52;5.13;;;1.60;;
70975;SDS011;58635;51.198;6.010;2023-03-13T10:53:31;4.53;;;1.30;;
70975;SDS011;58635;51.198;6.010;2023-03-13T10:56:11;4.90;;;1.50;;
70975;SDS011;58635;51.198;6.010;2023-03-13T10:58:45;4.70;;;1.75;;
70975;SDS011;58635;51.198;6.010;2023-03-13T11:01:26;2.67;;;1.20;;
70975;SDS011;58635;51.198;6.010;2023-03-13T11:03:56;4.53;;;1.30;;
70975;SDS011;58635;51.198;6.010;2023-03-13T11:08:57;5.75;;;1.10;;
70975;SDS011;58635;51.198;6.010;2023-03-13T11:11:27;3.42;;;1.40;;
70975;SDS011;58635;51.198;6.010;2023-03-13T11:14:06;2.53;;;1.00;;
70975;SDS011;58635;51.198;6.010;2023-03-13T11:16:35;2.72;;;1.20;;
70975;SDS011;58635;51.198;6.010;2023-03-13T11:21:43;3.47;;;0.90;;
70975;SDS011;58635;51.198;6.010;2023-03-13T11:27:27;3.05;;;1.13;;
70975;SDS011;58635;51.198;6.010;2023-03-13T11:32:37;2.83;;;1.00;;
70975;SDS011;58635;51.198;6.010;2023-03-13T11:35:10;2.30;;;0.93;;
70975;SDS011;58635;51.198;6.010;2023-03-13T11:37:43;2.65;;;1.73;;
70975;SDS011;58635;51.198;6.010;2023-03-13T11:50:49;2.05;;;0.80;;
70975;SDS011;58635;51.198;6.010;2023-03-13T11:56:07;4.25;;;0.90;;
70975;SDS011;58635;51.198;6.010;2023-03-13T11:59:03;3.17;;;0.93;;
70975;SDS011;58635;51.198;6.010;2023-03-13T12:01:50;2.63;;;0.80;;
70975;SDS011;58635;51.198;6.010;2023-03-13T12:04:24;3.95;;;0.90;;
70975;SDS011;58635;51.198;6.010;2023-03-13T12:07:04;2.25;;;0.95;;
70975;SDS011;58635;51.198;6.010;2023-03-13T12:09:45;3.17;;;1.00;;
70975;SDS011;58635;51.198;6.010;2023-03-13T12:12:19;2.47;;;0.90;;
70975;SDS011;58635;51.198;6.010;2023-03-13T12:17:52;3.67;;;1.00;;
70975;SDS011;58635;51.198;6.010;2023-03-13T12:20:26;2.15;;;0.93;;
70975;SDS011;58635;51.198;6.010;2023-03-13T12:31:12;1.73;;;0.80;;
70975;SDS011;58635;51.198;6.010;2023-03-13T12:33:43;2.10;;;0.80;;
70975;SDS011;58635;51.198;6.010;2023-03-13T12:42:10;1.73;;;0.70;;
70975;SDS011;58635;51.198;6.010;2023-03-13T12:44:31;1.33;;;0.80;;
70975;SDS011;58635;51.198;6.010;2023-03-13T12:49:38;2.08;;;0.70;;
70975;SDS011;58635;51.198;6.010;2023-03-13T13:00:22;3.67;;;0.90;;
70975;SDS011;58635;51.198;6.010;2023-03-13T13:05:34;2.25;;;1.00;;
70975;SDS011;58635;51.198;6.010;2023-03-13T13:08:00;3.83;;;0.90;;
70975;SDS011;58635;51.198;6.010;2023-03-13T13:10:26;4.07;;;0.70;;
70975;SDS011;58635;51.198;6.010;2023-03-13T13:13:35;2.22;;;0.80;;
70975;SDS011;58635;51.198;6.010;2023-03-13T13:15:46;2.95;;;1.08;;
70975;SDS011;58635;51.198;6.010;2023-03-13T13:18:24;1.95;;;0.80;;
70975;SDS011;58635;51.198;6.010;2023-03-13T13:23:35;2.40;;;0.80;;
70975;SDS011;58635;51.198;6.010;2023-03-13T13:36:56;3.53;;;0.80;;
70975;SDS011;58635;51.198;6.010;2023-03-13T13:47:23;1.55;;;0.90;;
70975;SDS011;58635;51.198;6.010;2023-03-13T13:49:55;2.25;;;0.75;;
70975;SDS011;58635;51.198;6.010;2023-03-13T13:52:35;2.10;;;0.90;;
70975;SDS011;58635;51.198;6.010;2023-03-13T13:55:03;1.75;;;0.77;;
70975;SDS011;58635;51.198;6.010;2023-03-13T13:57:50;1.35;;;0.80;;
70975;SDS011;58635;51.198;6.010;2023-03-13T14:00:26;1.92;;;1.00;;
70975;SDS011;58635;51.198;6.010;2023-03-13T14:02:58;3.25;;;1.10;;
70975;SDS011;58635;51.198;6.010;2023-03-13T14:05:25;2.67;;;1.00;;
70975;SDS011;58635;51.198;6.010;2023-03-13T14:10:41;3.40;;;0.93;;
70975;SDS011;58635;51.198;6.010;2023-03-13T14:13:15;3.35;;;1.10;;
70975;SDS011;58635;51.198;6.010;2023-03-13T14:15:47;5.22;;;1.30;;
70975;SDS011;58635;51.198;6.010;2023-03-13T14:18:23;3.05;;;0.95;;
70975;SDS011;58635;51.198;6.010;2023-03-13T14:26:19;2.00;;;0.90;;
70975;SDS011;58635;51.198;6.010;2023-03-13T14:28:58;5.05;;;1.55;;
70975;SDS011;58635;51.198;6.010;2023-03-13T14:31:28;5.07;;;1.50;;
70975;SDS011;58635;51.198;6.010;2023-03-13T14:34:02;4.28;;;1.15;;
70975;SDS011;58635;51.198;6.010;2023-03-13T14:36:30;2.95;;;1.02;;
70975;SDS011;58635;51.198;6.010;2023-03-13T14:39:11;4.80;;;1.05;;
70975;SDS011;58635;51.198;6.010;2023-03-13T14:41:43;2.33;;;1.10;;
70975;SDS011;58635;51.198;6.010;2023-03-13T14:44:22;2.60;;;1.00;;
70975;SDS011;58635;51.198;6.010;2023-03-13T14:47:00;4.40;;;1.08;;
70975;SDS011;58635;51.198;6.010;2023-03-13T14:49:30;2.72;;;0.90;;
70975;SDS011;58635;51.198;6.010;2023-03-13T14:52:03;4.47;;;1.00;;
70975;SDS011;58635;51.198;6.010;2023-03-13T14:54:31;3.10;;;1.20;;
70975;SDS011;58635;51.198;6.010;2023-03-13T14:59:27;3.40;;;1.00;;
70975;SDS011;58635;51.198;6.010;2023-03-13T15:02:00;5.43;;;1.20;;
70975;SDS011;58635;51.198;6.010;2023-03-13T15:04:52;4.35;;;1.23;;
70975;SDS011;58635;51.198;6.010;2023-03-13T15:07:35;2.88;;;1.13;;
70975;SDS011;58635;51.198;6.010;2023-03-13T15:10:19;4.25;;;1.20;;
70975;SDS011;58635;51.198;6.010;2023-03-13T15:12:46;2.47;;;1.30;;
70975;SDS011;58635;51.198;6.010;2023-03-13T15:15:12;3.05;;;1.10;;
70975;SDS011;58635;51.198;6.010;2023-03-13T15:17:38;4.20;;;1.27;;
70975;SDS011;58635;51.198;6.010;2023-03-13T15:20:04;3.88;;;1.10;;
70975;SDS011;58635;51.198;6.010;2023-03-13T15:22:32;4.70;;;1.17;;
70975;SDS011;58635;51.198;6.010;2023-03-13T15:25:00;4.15;;;1.30;;
70975;SDS011;58635;51.198;6.010;2023-03-13T15:27:26;2.30;;;1.15;;
70975;SDS011;58635;51.198;6.010;2023-03-13T15:29:52;3.80;;;1.27;;
70975;SDS011;58635;51.198;6.010;2023-03-13T15:32:22;2.38;;;1.17;;
70975;SDS011;58635;51.198;6.010;2023-03-13T15:34:50;5.18;;;1.33;;
70975;SDS011;58635;51.198;6.010;2023-03-13T15:37:16;4.40;;;1.80;;
70975;SDS011;58635;51.198;6.010;2023-03-13T15:39:41;4.07;;;1.40;;
70975;SDS011;58635;51.198;6.010;2023-03-13T15:42:07;5.95;;;1.50;;
70975;SDS011;58635;51.198;6.010;2023-03-13T15:44:32;3.30;;;1.20;;
70975;SDS011;58635;51.198;6.010;2023-03-13T15:46:58;3.70;;;1.23;;
70975;SDS011;58635;51.198;6.010;2023-03-13T15:49:23;2.80;;;1.23;;
70975;SDS011;58635;51.198;6.010;2023-03-13T15:51:48;4.72;;;1.10;;
70975;SDS011;58635;51.198;6.010;2023-03-13T15:54:14;3.53;;;0.90;;
70975;SDS011;58635;51.198;6.010;2023-03-13T15:56:40;3.97;;;1.20;;
70975;SDS011;58635;51.198;6.010;2023-03-13T15:59:12;3.28;;;1.10;;
70975;SDS011;58635;51.198;6.010;2023-03-13T16:01:39;5.70;;;1.40;;
70975;SDS011;58635;51.198;6.010;2023-03-13T16:04:05;4.97;;;1.20;;
70975;SDS011;58635;51.198;6.010;2023-03-13T16:06:30;3.45;;;1.23;;
70975;SDS011;58635;51.198;6.010;2023-03-13T16:08:59;2.85;;;1.20;;
70975;SDS011;58635;51.198;6.010;2023-03-13T16:11:26;3.80;;;1.23;;
70975;SDS011;58635;51.198;6.010;2023-03-13T16:13:53;4.82;;;1.30;;
70975;SDS011;58635;51.198;6.010;2023-03-13T16:16:23;5.10;;;1.63;;
70975;SDS011;58635;51.198;6.010;2023-03-13T16:18:52;7.40;;;1.38;;
70975;SDS011;58635;51.198;6.010;2023-03-13T16:21:19;3.75;;;1.17;;
70975;SDS011;58635;51.198;6.010;2023-03-13T16:23:46;4.75;;;1.30;;
70975;SDS011;58635;51.198;6.010;2023-03-13T16:26:16;3.75;;;1.42;;
70975;SDS011;58635;51.198;6.010;2023-03-13T16:28:43;3.95;;;1.10;;
70975;SDS011;58635;51.198;6.010;2023-03-13T16:31:14;4.30;;;1.58;;
70975;SDS011;58635;51.198;6.010;2023-03-13T16:33:41;4.88;;;1.63;;
70975;SDS011;58635;51.198;6.010;2023-03-13T16:36:12;4.38;;;1.60;;
70975;SDS011;58635;51.198;6.010;2023-03-13T16:38:39;5.47;;;1.40;;
70975;SDS011;58635;51.198;6.010;2023-03-13T16:41:04;5.30;;;1.55;;
70975;SDS011;58635;51.198;6.010;2023-03-13T16:43:30;5.90;;;1.65;;
70975;SDS011;58635;51.198;6.010;2023-03-13T16:45:55;5.70;;;1.92;;